Details for Ryanair at EGPF




Go Back


Latest METAR
Local Time

EGPF 180620Z AUTO 25014KT 9999 -RA SCT013 BKN021 BKN028 14/14 Q1010
18/08/2018, 07:28:28

Description
Results
Ryanair Logo
Number of Pilots based at EGPF
2 Pilots Based here
Number of Ryanair Flights Departed from EGPF
11 Flights Departed
Number of Ryanair Flights Arrived at EGPF
13 Flights Arrived
Number of Ryanair Schedules Departing from EGPF
39 Schedules
Number of Ryanair Schedules Arriving at EGPF
41 Schedules
Number of Ryanair Schedules Departing from EGPF availible today
11 Schedules Today
Number of Ryanair Schedules Arriving at EGPF availible today
11 Schedules Today
Average Landing Rate at EGPF
-204 fpm
Ryanair Average Landing Rate at EGPF
-201 fpm
Total Fuel Purchased at EGPF by Ryanair
62,070.04 kgs / 136,839.61 lbs

Pilots Based at EGPF


Pilot ID
Pilot Name
Pilot Rank
No. of Flights
No. of Flying Hours
Renaat Meeuws
45
69.55
Thomas Bell
424
718.14
Content